Weather at Omicron Station Airport

Public forecast

Using degrees Celsius for public forecast. Weather courtesy of forecast.io.

Closest aviation weather report (METAR) to Omicron Station Airport

Report is more than 6 hours old.

Closest report is Leigh Creek Airport, 182.3 nm (337.7 km) SW. Retrieved 2022/05/19 00:08 UTC (5 days ago):

YLEC 190008Z AUTO 09015G25KT 9999 // NCD 14/04 Q1027

Closest aviation forecast (TAF) to Omicron Station Airport

Closest forecast is Woomera Airfield, 269.6 nm (499.2 km) WSW. Retrieved 2022/05/24 06:00 UTC (2 hours ago):

TAF YPWR 240522Z 2406/2500 01016KT 9999 SCT035 FM240800 01012KT 9999 SCT040 FM241200 01012KT 9999 -SHRA SCT050